sensor_id;sensor_type;location;lat;lon;timestamp;pressure;altitude;pressure_sealevel;temperature;humidity
20825;BME280;10573;50.936;6.978;2023-07-13T00:00:38;101110.69;;;20.57;43.65
20825;BME280;10573;50.936;6.978;2023-07-13T00:03:04;101108.09;;;20.49;43.92
20825;BME280;10573;50.936;6.978;2023-07-13T00:05:30;101108.75;;;20.51;44.15
20825;BME280;10573;50.936;6.978;2023-07-13T00:07:56;101114.69;;;20.48;44.14
20825;BME280;10573;50.936;6.978;2023-07-13T00:10:22;101112.38;;;20.23;44.88
20825;BME280;10573;50.936;6.978;2023-07-13T00:12:47;101104.97;;;20.30;44.74
20825;BME280;10573;50.936;6.978;2023-07-13T00:15:17;101105.06;;;20.43;44.85
20825;BME280;10573;50.936;6.978;2023-07-13T00:17:46;101117.19;;;20.42;44.93
20825;BME280;10573;50.936;6.978;2023-07-13T00:20:12;101109.56;;;20.44;44.74
20825;BME280;10573;50.936;6.978;2023-07-13T00:22:38;101116.56;;;20.40;44.76
20825;BME280;10573;50.936;6.978;2023-07-13T00:25:03;101106.38;;;20.48;44.92
20825;BME280;10573;50.936;6.978;2023-07-13T00:27:29;101111.22;;;20.39;45.19
20825;BME280;10573;50.936;6.978;2023-07-13T00:29:57;101110.50;;;20.30;44.88
20825;BME280;10573;50.936;6.978;2023-07-13T00:32:23;101114.31;;;20.29;44.91
20825;BME280;10573;50.936;6.978;2023-07-13T00:34:51;101107.69;;;20.23;45.03
20825;BME280;10573;50.936;6.978;2023-07-13T00:37:17;101113.53;;;20.35;45.08
20825;BME280;10573;50.936;6.978;2023-07-13T00:39:42;101109.47;;;20.31;44.98
20825;BME280;10573;50.936;6.978;2023-07-13T00:42:08;101108.22;;;20.34;45.13
20825;BME280;10573;50.936;6.978;2023-07-13T00:44:33;101107.91;;;20.22;45.44
20825;BME280;10573;50.936;6.978;2023-07-13T00:46:59;101108.13;;;19.99;46.04
20825;BME280;10573;50.936;6.978;2023-07-13T00:49:27;101111.84;;;20.12;45.88
20825;BME280;10573;50.936;6.978;2023-07-13T00:51:58;101104.25;;;19.93;46.26
20825;BME280;10573;50.936;6.978;2023-07-13T00:54:29;101103.84;;;19.96;46.17
20825;BME280;10573;50.936;6.978;2023-07-13T00:56:58;101101.59;;;19.85;46.41
20825;BME280;10573;50.936;6.978;2023-07-13T00:59:24;101105.72;;;19.74;46.85
20825;BME280;10573;50.936;6.978;2023-07-13T01:01:50;101099.75;;;19.70;46.90
20825;BME280;10573;50.936;6.978;2023-07-13T01:04:16;101099.97;;;19.69;47.02
20825;BME280;10573;50.936;6.978;2023-07-13T01:06:43;101095.81;;;19.58;47.32
20825;BME280;10573;50.936;6.978;2023-07-13T01:09:10;101100.94;;;19.61;47.33
20825;BME280;10573;50.936;6.978;2023-07-13T01:11:36;101109.50;;;19.66;47.46
20825;BME280;10573;50.936;6.978;2023-07-13T01:14:02;101095.53;;;19.74;47.12
20825;BME280;10573;50.936;6.978;2023-07-13T01:16:31;101101.44;;;19.71;47.41
20825;BME280;10573;50.936;6.978;2023-07-13T01:18:57;101099.91;;;19.84;47.23
20825;BME280;10573;50.936;6.978;2023-07-13T01:21:24;101100.81;;;19.69;47.30
20825;BME280;10573;50.936;6.978;2023-07-13T01:23:50;101096.72;;;19.65;47.13
20825;BME280;10573;50.936;6.978;2023-07-13T01:26:16;101101.50;;;19.78;47.07
20825;BME280;10573;50.936;6.978;2023-07-13T01:28:41;101107.63;;;19.52;47.42
20825;BME280;10573;50.936;6.978;2023-07-13T01:31:07;101101.78;;;19.61;47.37
20825;BME280;10573;50.936;6.978;2023-07-13T01:33:36;101101.78;;;19.61;47.38
20825;BME280;10573;50.936;6.978;2023-07-13T01:36:01;101101.34;;;19.58;47.51
20825;BME280;10573;50.936;6.978;2023-07-13T01:38:27;101106.38;;;19.54;47.67
20825;BME280;10573;50.936;6.978;2023-07-13T01:40:53;101102.72;;;19.69;47.44
20825;BME280;10573;50.936;6.978;2023-07-13T01:43:19;101103.72;;;19.83;47.88
20825;BME280;10573;50.936;6.978;2023-07-13T01:45:45;101108.81;;;19.64;47.59
20825;BME280;10573;50.936;6.978;2023-07-13T01:48:11;101096.78;;;19.72;47.60
20825;BME280;10573;50.936;6.978;2023-07-13T01:50:37;101102.31;;;19.72;47.41
20825;BME280;10573;50.936;6.978;2023-07-13T01:53:03;101097.63;;;19.72;47.80
20825;BME280;10573;50.936;6.978;2023-07-13T01:55:29;101100.53;;;19.64;47.83
20825;BME280;10573;50.936;6.978;2023-07-13T01:57:55;101093.81;;;19.73;47.75
20825;BME280;10573;50.936;6.978;2023-07-13T02:00:21;101095.13;;;19.77;47.53
20825;BME280;10573;50.936;6.978;2023-07-13T02:02:47;101096.91;;;19.64;47.85
20825;BME280;10573;50.936;6.978;2023-07-13T02:05:12;101110.47;;;19.58;48.19
20825;BME280;10573;50.936;6.978;2023-07-13T02:07:38;101106.06;;;19.64;48.38
20825;BME280;10573;50.936;6.978;2023-07-13T02:10:05;101109.09;;;19.69;47.87
20825;BME280;10573;50.936;6.978;2023-07-13T02:12:31;101106.59;;;19.74;47.77
20825;BME280;10573;50.936;6.978;2023-07-13T02:14:56;101101.41;;;19.65;47.79
20825;BME280;10573;50.936;6.978;2023-07-13T02:17:22;101113.44;;;19.57;48.22
20825;BME280;10573;50.936;6.978;2023-07-13T02:19:47;101115.53;;;19.55;48.15
20825;BME280;10573;50.936;6.978;2023-07-13T02:22:12;101113.78;;;19.32;48.57
20825;BME280;10573;50.936;6.978;2023-07-13T02:24:38;101117.38;;;19.48;48.57
20825;BME280;10573;50.936;6.978;2023-07-13T02:27:04;101117.38;;;19.48;48.95
20825;BME280;10573;50.936;6.978;2023-07-13T02:29:29;101111.03;;;19.54;48.37
20825;BME280;10573;50.936;6.978;2023-07-13T02:31:55;101113.78;;;19.32;48.80
20825;BME280;10573;50.936;6.978;2023-07-13T02:34:20;101115.78;;;19.38;49.12
20825;BME280;10573;50.936;6.978;2023-07-13T02:36:45;101123.22;;;19.23;49.75
20825;BME280;10573;50.936;6.978;2023-07-13T02:39:11;101116.41;;;19.40;48.98
20825;BME280;10573;50.936;6.978;2023-07-13T02:41:37;101114.25;;;19.36;49.18
20825;BME280;10573;50.936;6.978;2023-07-13T02:44:03;101110.56;;;19.28;49.60
20825;BME280;10573;50.936;6.978;2023-07-13T02:46:33;101118.22;;;19.11;50.14
20825;BME280;10573;50.936;6.978;2023-07-13T02:48:58;101115.44;;;19.11;50.49
20825;BME280;10573;50.936;6.978;2023-07-13T02:51:24;101112.13;;;19.01;50.54
20825;BME280;10573;50.936;6.978;2023-07-13T02:53:50;101115.44;;;19.11;50.02
20825;BME280;10573;50.936;6.978;2023-07-13T02:56:15;101106.88;;;19.06;49.82
20825;BME280;10573;50.936;6.978;2023-07-13T02:58:40;101118.31;;;19.03;50.11
20825;BME280;10573;50.936;6.978;2023-07-13T03:01:08;101118.97;;;19.05;50.07
20825;BME280;10573;50.936;6.978;2023-07-13T03:03:34;101117.66;;;19.01;49.98
20825;BME280;10573;50.936;6.978;2023-07-13T03:06:00;101119.75;;;18.99;50.00
20825;BME280;10573;50.936;6.978;2023-07-13T03:08:27;101131.34;;;19.09;49.80
20825;BME280;10573;50.936;6.978;2023-07-13T03:11:03;101130.00;;;19.05;50.13
20825;BME280;10573;50.936;6.978;2023-07-13T03:13:30;101126.31;;;19.13;49.91
20825;BME280;10573;50.936;6.978;2023-07-13T03:15:56;101125.06;;;19.16;49.90
20825;BME280;10573;50.936;6.978;2023-07-13T03:18:21;101132.31;;;19.17;49.91
20825;BME280;10573;50.936;6.978;2023-07-13T03:20:50;101129.84;;;19.07;49.67
20825;BME280;10573;50.936;6.978;2023-07-13T03:23:16;101129.47;;;19.10;49.71
20825;BME280;10573;50.936;6.978;2023-07-13T03:25:41;101126.69;;;19.10;49.85
20825;BME280;10573;50.936;6.978;2023-07-13T03:28:07;101140.88;;;18.92;50.30
20825;BME280;10573;50.936;6.978;2023-07-13T03:30:32;101136.09;;;18.86;50.22
20825;BME280;10573;50.936;6.978;2023-07-13T03:32:57;101141.44;;;18.87;50.20
20825;BME280;10573;50.936;6.978;2023-07-13T03:35:23;101135.75;;;18.89;50.18
20825;BME280;10573;50.936;6.978;2023-07-13T03:37:48;101143.25;;;18.80;50.42
20825;BME280;10573;50.936;6.978;2023-07-13T03:40:14;101150.75;;;18.71;50.35
20825;BME280;10573;50.936;6.978;2023-07-13T03:42:39;101148.09;;;18.63;50.53
20825;BME280;10573;50.936;6.978;2023-07-13T03:45:05;101147.59;;;18.59;50.72
20825;BME280;10573;50.936;6.978;2023-07-13T03:47:30;101149.53;;;18.74;50.54
20825;BME280;10573;50.936;6.978;2023-07-13T03:49:56;101162.00;;;18.85;50.44
20825;BME280;10573;50.936;6.978;2023-07-13T03:52:21;101165.31;;;18.65;50.70
20825;BME280;10573;50.936;6.978;2023-07-13T03:54:47;101169.03;;;18.72;50.58
20825;BME280;10573;50.936;6.978;2023-07-13T03:57:12;101157.06;;;18.80;50.51
20825;BME280;10573;50.936;6.978;2023-07-13T03:59:37;101166.94;;;18.74;50.72
20825;BME280;10573;50.936;6.978;2023-07-13T04:02:03;101158.00;;;18.72;50.90
20825;BME280;10573;50.936;6.978;2023-07-13T04:04:29;101162.53;;;18.65;51.33
20825;BME280;10573;50.936;6.978;2023-07-13T04:06:56;101164.94;;;18.68;51.26
20825;BME280;10573;50.936;6.978;2023-07-13T04:09:23;101167.63;;;18.76;51.38
20825;BME280;10573;50.936;6.978;2023-07-13T04:11:49;101167.84;;;18.90;50.95
20825;BME280;10573;50.936;6.978;2023-07-13T04:14:14;101165.66;;;19.00;50.84
20825;BME280;10573;50.936;6.978;2023-07-13T04:16:39;101172.19;;;18.84;51.37
20825;BME280;10573;50.936;6.978;2023-07-13T04:19:05;101165.78;;;18.84;51.30
20825;BME280;10573;50.936;6.978;2023-07-13T04:21:31;101169.59;;;18.83;51.34
20825;BME280;10573;50.936;6.978;2023-07-13T04:23:57;101173.03;;;18.85;51.47
20825;BME280;10573;50.936;6.978;2023-07-13T04:26:23;101173.03;;;18.85;51.50
20825;BME280;10573;50.936;6.978;2023-07-13T04:28:49;101174.47;;;18.81;51.67
20825;BME280;10573;50.936;6.978;2023-07-13T04:31:15;101174.00;;;18.92;51.56
20825;BME280;10573;50.936;6.978;2023-07-13T04:33:41;101168.25;;;18.78;51.78
20825;BME280;10573;50.936;6.978;2023-07-13T04:36:08;101175.72;;;18.93;51.58
20825;BME280;10573;50.936;6.978;2023-07-13T04:38:35;101169.50;;;18.76;52.27
20825;BME280;10573;50.936;6.978;2023-07-13T04:41:05;101181.22;;;18.63;52.53
20825;BME280;10573;50.936;6.978;2023-07-13T04:43:32;101172.91;;;18.48;53.10
20825;BME280;10573;50.936;6.978;2023-07-13T04:46:21;101173.25;;;18.45;53.36
20825;BME280;10573;50.936;6.978;2023-07-13T04:48:46;101181.41;;;18.61;53.26
20825;BME280;10573;50.936;6.978;2023-07-13T04:51:14;101172.25;;;18.61;53.18
20825;BME280;10573;50.936;6.978;2023-07-13T04:53:39;101180.06;;;18.57;53.34
20825;BME280;10573;50.936;6.978;2023-07-13T04:56:05;101173.88;;;18.70;53.16
20825;BME280;10573;50.936;6.978;2023-07-13T04:58:31;101180.25;;;18.56;53.42
20825;BME280;10573;50.936;6.978;2023-07-13T05:01:04;101183.47;;;18.59;53.49
20825;BME280;10573;50.936;6.978;2023-07-13T05:03:30;101185.69;;;18.64;53.47
20825;BME280;10573;50.936;6.978;2023-07-13T05:05:57;101179.41;;;18.70;53.57
20825;BME280;10573;50.936;6.978;2023-07-13T05:08:23;101182.13;;;18.55;53.93
20825;BME280;10573;50.936;6.978;2023-07-13T05:10:50;101180.47;;;18.69;53.79
20825;BME280;10573;50.936;6.978;2023-07-13T05:13:15;101194.19;;;18.77;53.54
20825;BME280;10573;50.936;6.978;2023-07-13T05:15:41;101191.50;;;18.69;53.99
20825;BME280;10573;50.936;6.978;2023-07-13T05:18:06;101183.59;;;18.81;53.77
20825;BME280;10573;50.936;6.978;2023-07-13T05:20:32;101194.81;;;18.79;53.87
20825;BME280;10573;50.936;6.978;2023-07-13T05:22:57;101196.56;;;18.81;54.04
20825;BME280;10573;50.936;6.978;2023-07-13T05:25:23;101194.72;;;18.88;53.56
20825;BME280;10573;50.936;6.978;2023-07-13T05:27:48;101199.16;;;18.97;53.45
20825;BME280;10573;50.936;6.978;2023-07-13T05:30:14;101198.63;;;18.78;54.10
20825;BME280;10573;50.936;6.978;2023-07-13T05:32:40;101209.00;;;18.76;54.09
20825;BME280;10573;50.936;6.978;2023-07-13T05:35:06;101213.13;;;18.81;54.21
20825;BME280;10573;50.936;6.978;2023-07-13T05:37:32;101210.28;;;18.89;53.97
20825;BME280;10573;50.936;6.978;2023-07-13T05:39:57;101210.59;;;18.94;53.87
20825;BME280;10573;50.936;6.978;2023-07-13T05:42:22;101212.22;;;18.88;54.10
20825;BME280;10573;50.936;6.978;2023-07-13T05:44:48;101216.31;;;19.07;53.85
20825;BME280;10573;50.936;6.978;2023-07-13T05:47:13;101213.34;;;19.09;53.61
20825;BME280;10573;50.936;6.978;2023-07-13T05:49:40;101220.00;;;19.00;54.09
20825;BME280;10573;50.936;6.978;2023-07-13T05:52:06;101214.38;;;19.08;54.15
20825;BME280;10573;50.936;6.978;2023-07-13T05:54:31;101220.88;;;19.15;54.05
20825;BME280;10573;50.936;6.978;2023-07-13T05:56:57;101221.63;;;19.09;54.15
20825;BME280;10573;50.936;6.978;2023-07-13T05:59:22;101228.28;;;19.15;53.96
20825;BME280;10573;50.936;6.978;2023-07-13T06:01:48;101230.88;;;19.01;54.35
20825;BME280;10573;50.936;6.978;2023-07-13T06:04:14;101226.00;;;19.33;53.61
20825;BME280;10573;50.936;6.978;2023-07-13T06:06:39;101229.25;;;19.22;54.28
20825;BME280;10573;50.936;6.978;2023-07-13T06:09:04;101226.00;;;19.33;53.90
20825;BME280;10573;50.936;6.978;2023-07-13T06:11:30;101234.19;;;19.41;54.17
20825;BME280;10573;50.936;6.978;2023-07-13T06:13:56;101238.28;;;19.45;53.96
20825;BME280;10573;50.936;6.978;2023-07-13T06:16:22;101232.13;;;19.28;54.43
20825;BME280;10573;50.936;6.978;2023-07-13T06:18:47;101238.28;;;19.45;54.60
20825;BME280;10573;50.936;6.978;2023-07-13T06:21:15;101238.00;;;19.40;54.41
20825;BME280;10573;50.936;6.978;2023-07-13T06:23:42;101247.13;;;19.56;54.17
20825;BME280;10573;50.936;6.978;2023-07-13T06:26:09;101242.88;;;19.38;54.71
20825;BME280;10573;50.936;6.978;2023-07-13T06:28:35;101245.84;;;19.37;54.91
20825;BME280;10573;50.936;6.978;2023-07-13T06:31:01;101252.66;;;19.56;54.40
20825;BME280;10573;50.936;6.978;2023-07-13T06:33:27;101248.19;;;19.40;54.81
20825;BME280;10573;50.936;6.978;2023-07-13T06:35:52;101253.16;;;19.59;54.78
20825;BME280;10573;50.936;6.978;2023-07-13T06:38:20;101248.97;;;19.49;54.96
20825;BME280;10573;50.936;6.978;2023-07-13T06:40:45;101257.97;;;19.72;54.56
20825;BME280;10573;50.936;6.978;2023-07-13T06:43:10;101260.94;;;19.71;54.57
20825;BME280;10573;50.936;6.978;2023-07-13T06:45:43;101254.75;;;19.54;54.84
20825;BME280;10573;50.936;6.978;2023-07-13T06:48:11;101256.66;;;19.68;54.54
20825;BME280;10573;50.936;6.978;2023-07-13T06:50:36;101260.19;;;19.77;54.40
20825;BME280;10573;50.936;6.978;2023-07-13T06:53:02;101266.19;;;19.81;54.79
20825;BME280;10573;50.936;6.978;2023-07-13T06:55:27;101261.09;;;20.21;53.54
20825;BME280;10573;50.936;6.978;2023-07-13T06:57:52;101262.81;;;20.22;53.23
20825;BME280;10573;50.936;6.978;2023-07-13T07:00:18;101259.56;;;20.33;52.85
20825;BME280;10573;50.936;6.978;2023-07-13T07:02:44;101260.47;;;20.40;52.77
20825;BME280;10573;50.936;6.978;2023-07-13T07:05:09;101264.63;;;20.29;53.04
20825;BME280;10573;50.936;6.978;2023-07-13T07:07:35;101267.03;;;20.39;52.64
20825;BME280;10573;50.936;6.978;2023-07-13T07:10:00;101264.94;;;20.63;52.19
20825;BME280;10573;50.936;6.978;2023-07-13T07:12:26;101264.00;;;20.56;52.24
20825;BME280;10573;50.936;6.978;2023-07-13T07:14:51;101272.50;;;20.76;51.68
20825;BME280;10573;50.936;6.978;2023-07-13T07:17:16;101264.53;;;20.66;51.61
20825;BME280;10573;50.936;6.978;2023-07-13T07:19:42;101279.56;;;20.78;51.81
20825;BME280;10573;50.936;6.978;2023-07-13T07:22:07;101283.75;;;20.96;51.83
20825;BME280;10573;50.936;6.978;2023-07-13T07:24:33;101280.44;;;20.79;51.72
20825;BME280;10573;50.936;6.978;2023-07-13T07:26:58;101280.41;;;21.01;51.37
20825;BME280;10573;50.936;6.978;2023-07-13T07:29:24;101280.66;;;21.06;50.82
20825;BME280;10573;50.936;6.978;2023-07-13T07:31:52;101290.75;;;20.92;51.55
20825;BME280;10573;50.936;6.978;2023-07-13T07:34:17;101285.03;;;20.72;51.93
20825;BME280;10573;50.936;6.978;2023-07-13T07:36:43;101282.81;;;21.10;51.09
20825;BME280;10573;50.936;6.978;2023-07-13T07:39:08;101282.59;;;21.47;50.53
20825;BME280;10573;50.936;6.978;2023-07-13T07:41:34;101286.34;;;21.61;50.34
20825;BME280;10573;50.936;6.978;2023-07-13T07:43:59;101285.50;;;21.32;50.67
20825;BME280;10573;50.936;6.978;2023-07-13T07:46:24;101277.94;;;21.48;50.42
20825;BME280;10573;50.936;6.978;2023-07-13T07:48:50;101287.41;;;21.60;50.55
20825;BME280;10573;50.936;6.978;2023-07-13T07:51:15;101289.00;;;21.12;51.29
20825;BME280;10573;50.936;6.978;2023-07-13T07:53:41;101288.22;;;21.54;50.58
20825;BME280;10573;50.936;6.978;2023-07-13T07:56:07;101286.88;;;21.50;50.01
20825;BME280;10573;50.936;6.978;2023-07-13T07:58:33;101291.03;;;21.32;50.74
20825;BME280;10573;50.936;6.978;2023-07-13T08:01:05;101282.97;;;21.37;51.13
20825;BME280;10573;50.936;6.978;2023-07-13T08:03:31;101281.84;;;21.60;50.40
20825;BME280;10573;50.936;6.978;2023-07-13T08:05:56;101277.47;;;21.86;49.72
20825;BME280;10573;50.936;6.978;2023-07-13T08:08:22;101278.63;;;22.11;49.25
20825;BME280;10573;50.936;6.978;2023-07-13T08:10:47;101281.50;;;21.76;49.38
20825;BME280;10573;50.936;6.978;2023-07-13T08:13:13;101284.47;;;21.75;49.54
20825;BME280;10573;50.936;6.978;2023-07-13T08:15:38;101282.97;;;21.72;49.63
20825;BME280;10573;50.936;6.978;2023-07-13T08:18:04;101286.66;;;21.79;49.23
20825;BME280;10573;50.936;6.978;2023-07-13T08:20:29;101283.16;;;21.64;49.93
20825;BME280;10573;50.936;6.978;2023-07-13T08:22:54;101284.03;;;21.71;50.07
20825;BME280;10573;50.936;6.978;2023-07-13T08:25:20;101279.84;;;21.89;49.42
20825;BME280;10573;50.936;6.978;2023-07-13T08:27:47;101283.66;;;21.81;49.10
20825;BME280;10573;50.936;6.978;2023-07-13T08:30:12;101284.09;;;21.85;49.33
20825;BME280;10573;50.936;6.978;2023-07-13T08:32:38;101277.53;;;21.99;49.14
20825;BME280;10573;50.936;6.978;2023-07-13T08:35:05;101277.38;;;22.21;49.65
20825;BME280;10573;50.936;6.978;2023-07-13T08:37:30;101273.63;;;22.49;48.53
20825;BME280;10573;50.936;6.978;2023-07-13T08:39:56;101259.69;;;22.28;47.98
20825;BME280;10573;50.936;6.978;2023-07-13T08:42:32;101264.22;;;22.50;47.85
20825;BME280;10573;50.936;6.978;2023-07-13T08:47:25;101270.59;;;22.37;48.32
20825;BME280;10573;50.936;6.978;2023-07-13T08:49:52;101259.09;;;22.60;47.75
20825;BME280;10573;50.936;6.978;2023-07-13T08:54:51;101259.50;;;23.04;46.42
20825;BME280;10573;50.936;6.978;2023-07-13T08:57:21;101259.06;;;23.00;46.38
20825;BME280;10573;50.936;6.978;2023-07-13T08:59:49;101261.25;;;22.85;46.60
20825;BME280;10573;50.936;6.978;2023-07-13T09:02:39;101268.53;;;22.72;47.15
20825;BME280;10573;50.936;6.978;2023-07-13T09:07:39;101276.84;;;22.86;46.52
20825;BME280;10573;50.936;6.978;2023-07-13T09:10:14;101263.78;;;22.39;47.47
20825;BME280;10573;50.936;6.978;2023-07-13T09:12:58;101260.38;;;22.77;46.63
20825;BME280;10573;50.936;6.978;2023-07-13T09:15:31;101268.91;;;23.23;45.51
20825;BME280;10573;50.936;6.978;2023-07-13T09:18:14;101262.97;;;22.86;45.67
20825;BME280;10573;50.936;6.978;2023-07-13T09:20:46;101264.03;;;22.85;45.71
20825;BME280;10573;50.936;6.978;2023-07-13T09:23:16;101264.84;;;23.19;45.32
20825;BME280;10573;50.936;6.978;2023-07-13T09:25:45;101267.19;;;23.22;44.94
20825;BME280;10573;50.936;6.978;2023-07-13T09:28:20;101264.81;;;23.39;44.44
20825;BME280;10573;50.936;6.978;2023-07-13T09:31:14;101276.19;;;23.04;44.98
20825;BME280;10573;50.936;6.978;2023-07-13T09:33:41;101261.28;;;24.16;43.37
20825;BME280;10573;50.936;6.978;2023-07-13T09:36:19;101257.03;;;25.21;41.40
20825;BME280;10573;50.936;6.978;2023-07-13T09:38:47;101247.22;;;26.77;39.16
20825;BME280;10573;50.936;6.978;2023-07-13T09:41:37;101238.22;;;27.22;37.41
20825;BME280;10573;50.936;6.978;2023-07-13T09:46:34;101236.22;;;27.99;35.34
20825;BME280;10573;50.936;6.978;2023-07-13T09:49:00;101237.34;;;28.27;34.55
20825;BME280;10573;50.936;6.978;2023-07-13T09:51:25;101246.63;;;28.16;34.87
20825;BME280;10573;50.936;6.978;2023-07-13T09:53:50;101259.25;;;27.49;35.49
20825;BME280;10573;50.936;6.978;2023-07-13T09:56:34;101250.38;;;27.28;36.43
20825;BME280;10573;50.936;6.978;2023-07-13T09:59:00;101251.84;;;26.95;35.78
20825;BME280;10573;50.936;6.978;2023-07-13T10:01:37;101262.81;;;26.42;36.23
20825;BME280;10573;50.936;6.978;2023-07-13T10:04:11;101262.44;;;26.93;35.82
20825;BME280;10573;50.936;6.978;2023-07-13T10:06:39;101252.47;;;26.97;34.61
20825;BME280;10573;50.936;6.978;2023-07-13T10:09:07;101253.13;;;26.57;35.84
20825;BME280;10573;50.936;6.978;2023-07-13T10:11:34;101262.72;;;25.51;37.60
20825;BME280;10573;50.936;6.978;2023-07-13T10:14:17;101266.34;;;25.33;37.32
20825;BME280;10573;50.936;6.978;2023-07-13T10:16:45;101275.19;;;25.86;37.10
20825;BME280;10573;50.936;6.978;2023-07-13T10:19:25;101267.72;;;25.98;36.92
20825;BME280;10573;50.936;6.978;2023-07-13T10:21:56;101266.16;;;26.02;36.56
20825;BME280;10573;50.936;6.978;2023-07-13T10:24:27;101277.50;;;25.33;38.19
20825;BME280;10573;50.936;6.978;2023-07-13T10:29:32;101286.75;;;25.71;38.08
20825;BME280;10573;50.936;6.978;2023-07-13T10:32:00;101273.72;;;25.83;38.11
20825;BME280;10573;50.936;6.978;2023-07-13T10:34:26;101276.56;;;25.21;38.33
20825;BME280;10573;50.936;6.978;2023-07-13T10:36:52;101281.63;;;24.80;39.14
20825;BME280;10573;50.936;6.978;2023-07-13T10:39:23;101287.56;;;24.58;39.37
20825;BME280;10573;50.936;6.978;2023-07-13T10:41:53;101277.63;;;25.20;38.94
20825;BME280;10573;50.936;6.978;2023-07-13T10:44:30;101277.97;;;25.30;38.69
20825;BME280;10573;50.936;6.978;2023-07-13T10:47:01;101268.47;;;25.38;38.74
20825;BME280;10573;50.936;6.978;2023-07-13T10:49:29;101272.66;;;25.66;38.16
20825;BME280;10573;50.936;6.978;2023-07-13T10:51:56;101276.31;;;25.48;38.31
20825;BME280;10573;50.936;6.978;2023-07-13T10:54:26;101274.75;;;25.52;38.58
20825;BME280;10573;50.936;6.978;2023-07-13T10:57:17;101271.69;;;25.90;38.84
20825;BME280;10573;50.936;6.978;2023-07-13T11:02:35;101274.19;;;26.29;37.78
20825;BME280;10573;50.936;6.978;2023-07-13T11:05:17;101265.88;;;25.92;37.86
20825;BME280;10573;50.936;6.978;2023-07-13T11:08:16;101280.50;;;25.38;38.74
20825;BME280;10573;50.936;6.978;2023-07-13T11:10:51;101286.06;;;25.13;39.25
20825;BME280;10573;50.936;6.978;2023-07-13T11:13:36;101286.59;;;24.78;40.24
20825;BME280;10573;50.936;6.978;2023-07-13T11:16:34;101304.16;;;24.15;41.09
20825;BME280;10573;50.936;6.978;2023-07-13T11:21:31;101296.75;;;23.82;41.62
20825;BME280;10573;50.936;6.978;2023-07-13T11:24:17;101288.94;;;24.10;41.33
20825;BME280;10573;50.936;6.978;2023-07-13T11:31:43;101289.94;;;24.55;41.51
20825;BME280;10573;50.936;6.978;2023-07-13T11:34:18;101293.13;;;24.65;40.97
20825;BME280;10573;50.936;6.978;2023-07-13T11:36:47;101286.38;;;24.48;40.84
20825;BME280;10573;50.936;6.978;2023-07-13T11:39:29;101284.28;;;24.43;40.53
20825;BME280;10573;50.936;6.978;2023-07-13T11:41:59;101283.13;;;24.19;39.93
20825;BME280;10573;50.936;6.978;2023-07-13T11:44:28;101288.72;;;24.19;40.06
20825;BME280;10573;50.936;6.978;2023-07-13T11:46:59;101289.22;;;23.95;40.76
20825;BME280;10573;50.936;6.978;2023-07-13T11:49:29;101284.94;;;24.00;41.09
20825;BME280;10573;50.936;6.978;2023-07-13T11:51:57;101291.31;;;24.13;41.12
20825;BME280;10573;50.936;6.978;2023-07-13T11:54:32;101285.16;;;23.98;41.22
20825;BME280;10573;50.936;6.978;2023-07-13T11:57:10;101286.44;;;24.34;41.22
20825;BME280;10573;50.936;6.978;2023-07-13T11:59:39;101292.28;;;24.65;40.74
20825;BME280;10573;50.936;6.978;2023-07-13T12:02:15;101278.81;;;24.87;40.54
20825;BME280;10573;50.936;6.978;2023-07-13T12:04:42;101283.75;;;25.10;40.39
20825;BME280;10573;50.936;6.978;2023-07-13T12:07:15;101265.41;;;25.21;39.61
20825;BME280;10573;50.936;6.978;2023-07-13T12:09:41;101281.16;;;24.58;39.62
20825;BME280;10573;50.936;6.978;2023-07-13T12:12:17;101276.47;;;24.52;39.94
20825;BME280;10573;50.936;6.978;2023-07-13T12:14:43;101270.91;;;24.52;40.07
20825;BME280;10573;50.936;6.978;2023-07-13T12:17:29;101277.88;;;24.36;39.54
20825;BME280;10573;50.936;6.978;2023-07-13T12:19:54;101269.38;;;24.56;39.47
20825;BME280;10573;50.936;6.978;2023-07-13T12:22:20;101272.63;;;24.53;39.28
20825;BME280;10573;50.936;6.978;2023-07-13T12:24:47;101286.88;;;24.38;39.47
20825;BME280;10573;50.936;6.978;2023-07-13T12:27:25;101281.22;;;24.12;39.61
20825;BME280;10573;50.936;6.978;2023-07-13T12:29:57;101276.19;;;24.35;39.21
20825;BME280;10573;50.936;6.978;2023-07-13T12:32:24;101273.00;;;24.63;38.84
20825;BME280;10573;50.936;6.978;2023-07-13T12:35:14;101271.72;;;24.59;38.86
20825;BME280;10573;50.936;6.978;2023-07-13T12:37:43;101273.28;;;25.05;38.25
20825;BME280;10573;50.936;6.978;2023-07-13T12:40:17;101261.88;;;26.49;37.07
20825;BME280;10573;50.936;6.978;2023-07-13T12:42:49;101251.38;;;28.95;33.22
20825;BME280;10573;50.936;6.978;2023-07-13T12:45:24;101258.25;;;29.04;32.00
20825;BME280;10573;50.936;6.978;2023-07-13T12:47:55;101260.75;;;27.04;33.87
20825;BME280;10573;50.936;6.978;2023-07-13T12:50:30;101265.03;;;26.64;34.16
20825;BME280;10573;50.936;6.978;2023-07-13T12:53:00;101265.22;;;26.27;34.65
20825;BME280;10573;50.936;6.978;2023-07-13T12:55:28;101279.22;;;26.08;34.98
20825;BME280;10573;50.936;6.978;2023-07-13T12:57:58;101275.09;;;25.18;36.23
20825;BME280;10573;50.936;6.978;2023-07-13T13:02:53;101278.56;;;25.13;36.23
20825;BME280;10573;50.936;6.978;2023-07-13T13:05:19;101279.63;;;25.12;36.56
20825;BME280;10573;50.936;6.978;2023-07-13T13:07:45;101278.03;;;25.23;36.16
20825;BME280;10573;50.936;6.978;2023-07-13T13:10:13;101281.94;;;25.59;36.56
20825;BME280;10573;50.936;6.978;2023-07-13T13:12:39;101268.84;;;26.70;34.58
20825;BME280;10573;50.936;6.978;2023-07-13T13:15:08;101257.69;;;27.41;33.77
20825;BME280;10573;50.936;6.978;2023-07-13T13:17:34;101256.44;;;28.01;32.27
20825;BME280;10573;50.936;6.978;2023-07-13T13:19:59;101250.75;;;28.25;31.60